sensor_id;sensor_type;location;lat;lon;timestamp;pressure;altitude;pressure_sealevel;temperature;humidity
49947;BME280;35839;48.662;13.300;2023-04-06T08:32:17;97725.44;;;4.89;71.52
49947;BME280;35839;48.662;13.300;2023-04-06T08:34:42;97730.06;;;5.10;70.33
49947;BME280;35839;48.662;13.300;2023-04-06T08:37:08;97725.13;;;5.31;76.94
49947;BME280;35839;48.662;13.300;2023-04-06T08:39:34;97734.44;;;5.70;77.33
49947;BME280;35839;48.662;13.300;2023-04-06T08:42:01;97725.25;;;5.77;73.50
49947;BME280;35839;48.662;13.300;2023-04-06T08:44:29;97726.97;;;5.65;67.85
49947;BME280;35839;48.662;13.300;2023-04-06T08:46:55;97723.13;;;5.95;63.51
49947;BME280;35839;48.662;13.300;2023-04-06T08:49:21;97717.97;;;6.18;70.88
49947;BME280;35839;48.662;13.300;2023-04-06T08:51:47;97719.56;;;6.20;64.83
49947;BME280;35839;48.662;13.300;2023-04-06T08:54:12;97720.72;;;6.16;64.87
49947;BME280;35839;48.662;13.300;2023-04-06T08:56:39;97719.91;;;6.16;69.49
49947;BME280;35839;48.662;13.300;2023-04-06T08:59:05;97716.56;;;6.14;55.87
49947;BME280;35839;48.662;13.300;2023-04-06T09:01:33;97715.97;;;6.10;56.74
49947;BME280;35839;48.662;13.300;2023-04-06T09:04:00;97713.22;;;6.47;57.39
49947;BME280;35839;48.662;13.300;2023-04-06T09:06:26;97727.66;;;6.04;51.68
49947;BME280;35839;48.662;13.300;2023-04-06T09:08:53;97715.19;;;6.32;52.28
49947;BME280;35839;48.662;13.300;2023-04-06T09:11:19;97717.72;;;6.67;51.84
49947;BME280;35839;48.662;13.300;2023-04-06T09:16:12;97712.75;;;6.53;50.75
49947;BME280;35839;48.662;13.300;2023-04-06T09:18:37;97713.13;;;6.93;51.00
49947;BME280;35839;48.662;13.300;2023-04-06T09:21:05;97705.50;;;7.13;50.94
49947;BME280;35839;48.662;13.300;2023-04-06T09:23:31;97707.75;;;7.17;51.15
49947;BME280;35839;48.662;13.300;2023-04-06T09:26:05;97716.53;;;6.94;48.71
49947;BME280;35839;48.662;13.300;2023-04-06T09:31:06;97697.25;;;7.95;49.72
49947;BME280;35839;48.662;13.300;2023-04-06T09:33:32;97713.03;;;7.38;46.16
49947;BME280;35839;48.662;13.300;2023-04-06T09:35:57;97698.56;;;7.89;45.50
49947;BME280;35839;48.662;13.300;2023-04-06T09:38:22;97697.91;;;8.18;49.38
49947;BME280;35839;48.662;13.300;2023-04-06T09:40:51;97692.03;;;8.58;44.38
49947;BME280;35839;48.662;13.300;2023-04-06T09:43:24;97697.53;;;8.64;46.26
49947;BME280;35839;48.662;13.300;2023-04-06T09:45:50;97692.81;;;8.79;44.87
49947;BME280;35839;48.662;13.300;2023-04-06T09:48:17;97692.00;;;8.79;43.40
49947;BME280;35839;48.662;13.300;2023-04-06T09:50:43;97686.06;;;9.27;44.61
49947;BME280;35839;48.662;13.300;2023-04-06T09:53:09;97689.94;;;9.33;44.21
49947;BME280;35839;48.662;13.300;2023-04-06T09:55:40;97693.69;;;10.18;44.81
49947;BME280;35839;48.662;13.300;2023-04-06T09:58:09;97684.19;;;10.36;44.29
49947;BME280;35839;48.662;13.300;2023-04-06T10:00:47;97690.13;;;10.28;39.19
49947;BME280;35839;48.662;13.300;2023-04-06T10:06:04;97686.91;;;9.27;45.46
49947;BME280;35839;48.662;13.300;2023-04-06T10:08:33;97679.06;;;8.47;44.20
49947;BME280;35839;48.662;13.300;2023-04-06T10:10:58;97678.19;;;8.25;42.61
49947;BME280;35839;48.662;13.300;2023-04-06T10:13:24;97686.81;;;7.63;42.53
49947;BME280;35839;48.662;13.300;2023-04-06T10:15:51;97673.22;;;7.80;43.15
49947;BME280;35839;48.662;13.300;2023-04-06T10:18:17;97671.59;;;7.79;42.16
49947;BME280;35839;48.662;13.300;2023-04-06T10:20:56;97682.50;;;7.73;41.30
49947;BME280;35839;48.662;13.300;2023-04-06T10:23:37;97676.00;;;8.41;44.42
49947;BME280;35839;48.662;13.300;2023-04-06T10:26:13;97670.16;;;9.59;40.97
49947;BME280;35839;48.662;13.300;2023-04-06T10:28:41;97660.50;;;10.08;41.55
49947;BME280;35839;48.662;13.300;2023-04-06T10:31:07;97666.13;;;8.76;37.21
49947;BME280;35839;48.662;13.300;2023-04-06T10:33:32;97659.28;;;9.44;38.50
49947;BME280;35839;48.662;13.300;2023-04-06T10:36:12;97658.97;;;10.25;36.42
49947;BME280;35839;48.662;13.300;2023-04-06T10:38:41;97647.28;;;10.67;37.57
49947;BME280;35839;48.662;13.300;2023-04-06T10:41:07;97643.91;;;10.84;36.92
49947;BME280;35839;48.662;13.300;2023-04-06T10:43:35;97635.06;;;11.13;39.40
49947;BME280;35839;48.662;13.300;2023-04-06T10:46:02;97632.81;;;11.18;37.28
49947;BME280;35839;48.662;13.300;2023-04-06T10:48:39;97635.41;;;10.25;36.22
49947;BME280;35839;48.662;13.300;2023-04-06T10:51:15;97631.44;;;10.31;35.41
49947;BME280;35839;48.662;13.300;2023-04-06T10:53:42;97636.38;;;11.27;38.65
49947;BME280;35839;48.662;13.300;2023-04-06T10:56:16;97636.31;;;10.91;34.39
49947;BME280;35839;48.662;13.300;2023-04-06T10:58:52;97637.34;;;11.44;34.08
49947;BME280;35839;48.662;13.300;2023-04-06T11:01:21;97635.38;;;11.28;33.22
49947;BME280;35839;48.662;13.300;2023-04-06T11:03:48;97627.47;;;10.64;34.14
49947;BME280;35839;48.662;13.300;2023-04-06T11:06:20;97630.16;;;10.25;34.90
49947;BME280;35839;48.662;13.300;2023-04-06T11:08:46;97634.22;;;10.94;33.54
49947;BME280;35839;48.662;13.300;2023-04-06T11:11:13;97625.88;;;11.80;34.24
49947;BME280;35839;48.662;13.300;2023-04-06T11:16:21;97631.88;;;11.19;34.98
49947;BME280;35839;48.662;13.300;2023-04-06T11:19:00;97623.84;;;11.74;33.21
49947;BME280;35839;48.662;13.300;2023-04-06T11:21:39;97628.91;;;10.49;32.24
49947;BME280;35839;48.662;13.300;2023-04-06T11:26:54;97615.28;;;12.08;35.63
49947;BME280;35839;48.662;13.300;2023-04-06T11:29:25;97613.53;;;11.19;33.55
49947;BME280;35839;48.662;13.300;2023-04-06T11:31:54;97610.25;;;12.41;33.00
49947;BME280;35839;48.662;13.300;2023-04-06T11:34:25;97615.28;;;11.01;32.31
49947;BME280;35839;48.662;13.300;2023-04-06T11:36:55;97602.59;;;11.77;35.67
49947;BME280;35839;48.662;13.300;2023-04-06T11:39:23;97599.38;;;12.10;34.93
49947;BME280;35839;48.662;13.300;2023-04-06T11:42:02;97594.34;;;12.16;31.45
49947;BME280;35839;48.662;13.300;2023-04-06T11:44:33;97593.06;;;12.97;34.53
49947;BME280;35839;48.662;13.300;2023-04-06T11:47:01;97598.47;;;12.96;31.38
49947;BME280;35839;48.662;13.300;2023-04-06T11:49:27;97592.44;;;12.00;32.60
49947;BME280;35839;48.662;13.300;2023-04-06T11:51:58;97582.75;;;12.61;35.02
49947;BME280;35839;48.662;13.300;2023-04-06T11:56:56;97567.22;;;12.08;32.33
49947;BME280;35839;48.662;13.300;2023-04-06T11:59:21;97576.38;;;11.06;32.45
49947;BME280;35839;48.662;13.300;2023-04-06T12:01:48;97573.88;;;11.04;33.67
49947;BME280;35839;48.662;13.300;2023-04-06T12:04:13;97569.88;;;12.84;32.65
49947;BME280;35839;48.662;13.300;2023-04-06T12:06:39;97561.91;;;11.81;31.87
49947;BME280;35839;48.662;13.300;2023-04-06T12:09:04;97567.41;;;11.88;31.19
49947;BME280;35839;48.662;13.300;2023-04-06T12:11:30;97567.31;;;12.58;33.05
49947;BME280;35839;48.662;13.300;2023-04-06T12:13:58;97554.25;;;12.83;31.37
49947;BME280;35839;48.662;13.300;2023-04-06T12:16:26;97557.28;;;13.13;32.47
49947;BME280;35839;48.662;13.300;2023-04-06T12:18:52;97558.13;;;13.13;29.57
49947;BME280;35839;48.662;13.300;2023-04-06T12:21:18;97552.75;;;13.39;29.44
49947;BME280;35839;48.662;13.300;2023-04-06T12:23:47;97554.91;;;13.52;30.51
49947;BME280;35839;48.662;13.300;2023-04-06T12:26:12;97557.78;;;13.16;29.72
49947;BME280;35839;48.662;13.300;2023-04-06T12:28:38;97558.34;;;12.35;30.18
49947;BME280;35839;48.662;13.300;2023-04-06T12:31:03;97554.88;;;12.26;32.80
49947;BME280;35839;48.662;13.300;2023-04-06T12:33:28;97553.03;;;13.20;29.97
49947;BME280;35839;48.662;13.300;2023-04-06T12:35:54;97543.38;;;13.53;28.61
49947;BME280;35839;48.662;13.300;2023-04-06T12:38:20;97536.94;;;13.97;31.20
49947;BME280;35839;48.662;13.300;2023-04-06T12:40:46;97543.81;;;13.24;28.65
49947;BME280;35839;48.662;13.300;2023-04-06T12:43:11;97540.22;;;12.23;28.66
49947;BME280;35839;48.662;13.300;2023-04-06T12:45:39;97528.66;;;12.85;28.99
49947;BME280;35839;48.662;13.300;2023-04-06T12:48:04;97529.34;;;14.49;30.45
49947;BME280;35839;48.662;13.300;2023-04-06T12:50:30;97531.97;;;14.49;30.55
49947;BME280;35839;48.662;13.300;2023-04-06T12:52:55;97534.72;;;14.25;27.33
49947;BME280;35839;48.662;13.300;2023-04-06T12:55:21;97527.88;;;14.55;30.65
49947;BME280;35839;48.662;13.300;2023-04-06T12:57:46;97532.34;;;13.82;28.79
49947;BME280;35839;48.662;13.300;2023-04-06T13:00:12;97531.78;;;14.67;30.54
49947;BME280;35839;48.662;13.300;2023-04-06T13:02:39;97536.16;;;13.39;28.28
49947;BME280;35839;48.662;13.300;2023-04-06T13:05:04;97525.75;;;13.95;28.26
49947;BME280;35839;48.662;13.300;2023-04-06T13:07:30;97537.25;;;13.94;28.75
49947;BME280;35839;48.662;13.300;2023-04-06T13:09:55;97531.28;;;14.16;28.55
49947;BME280;35839;48.662;13.300;2023-04-06T13:12:21;97539.63;;;13.47;29.25
49947;BME280;35839;48.662;13.300;2023-04-06T13:14:46;97527.72;;;13.11;28.74
49947;BME280;35839;48.662;13.300;2023-04-06T13:17:16;97530.72;;;13.48;28.89
49947;BME280;35839;48.662;13.300;2023-04-06T13:19:42;97536.91;;;14.13;28.65
49947;BME280;35839;48.662;13.300;2023-04-06T13:22:07;97531.66;;;13.23;29.07
49947;BME280;35839;48.662;13.300;2023-04-06T13:24:33;97516.59;;;15.01;27.63
49947;BME280;35839;48.662;13.300;2023-04-06T13:26:59;97515.19;;;14.50;28.17
49947;BME280;35839;48.662;13.300;2023-04-06T13:29:25;97521.06;;;14.21;28.45
49947;BME280;35839;48.662;13.300;2023-04-06T13:31:51;97506.28;;;14.91;30.16
49947;BME280;35839;48.662;13.300;2023-04-06T13:34:16;97509.91;;;14.11;27.14
49947;BME280;35839;48.662;13.300;2023-04-06T13:36:41;97509.38;;;14.71;27.39
49947;BME280;35839;48.662;13.300;2023-04-06T13:39:07;97506.59;;;14.65;28.83
49947;BME280;35839;48.662;13.300;2023-04-06T13:41:33;97503.25;;;15.25;27.59
49947;BME280;35839;48.662;13.300;2023-04-06T13:43:58;97511.94;;;13.11;27.98
49947;BME280;35839;48.662;13.300;2023-04-06T13:46:23;97498.00;;;13.51;28.25
49947;BME280;35839;48.662;13.300;2023-04-06T13:48:49;97498.56;;;14.10;27.87
49947;BME280;35839;48.662;13.300;2023-04-06T13:51:16;97488.34;;;14.07;28.94
49947;BME280;35839;48.662;13.300;2023-04-06T13:53:41;97487.44;;;15.40;28.08
49947;BME280;35839;48.662;13.300;2023-04-06T13:56:07;97488.03;;;16.18;27.54
49947;BME280;35839;48.662;13.300;2023-04-06T13:58:33;97485.19;;;15.14;27.68
49947;BME280;35839;48.662;13.300;2023-04-06T14:01:06;97486.00;;;16.20;27.45
49947;BME280;35839;48.662;13.300;2023-04-06T14:03:32;97489.38;;;16.29;27.31
49947;BME280;35839;48.662;13.300;2023-04-06T14:05:58;97489.06;;;16.68;24.98
49947;BME280;35839;48.662;13.300;2023-04-06T14:08:24;97482.06;;;17.40;28.52
49947;BME280;35839;48.662;13.300;2023-04-06T14:10:49;97488.75;;;16.27;24.89
49947;BME280;35839;48.662;13.300;2023-04-06T14:13:15;97482.75;;;17.05;26.38
49947;BME280;35839;48.662;13.300;2023-04-06T14:15:40;97480.78;;;17.57;24.20
49947;BME280;35839;48.662;13.300;2023-04-06T14:18:07;97487.94;;;15.96;25.75
49947;BME280;35839;48.662;13.300;2023-04-06T14:20:33;97477.34;;;16.92;27.45
49947;BME280;35839;48.662;13.300;2023-04-06T14:23:02;97463.31;;;17.91;26.38
49947;BME280;35839;48.662;13.300;2023-04-06T14:25:27;97481.84;;;15.58;25.45
49947;BME280;35839;48.662;13.300;2023-04-06T14:27:53;97478.09;;;14.91;26.27
49947;BME280;35839;48.662;13.300;2023-04-06T14:30:19;97474.47;;;17.58;27.58
49947;BME280;35839;48.662;13.300;2023-04-06T14:32:44;97484.41;;;14.51;23.98
49947;BME280;35839;48.662;13.300;2023-04-06T14:35:10;97475.13;;;15.55;24.80
49947;BME280;35839;48.662;13.300;2023-04-06T14:37:35;97483.38;;;15.14;25.00
49947;BME280;35839;48.662;13.300;2023-04-06T14:40:02;97481.59;;;17.30;23.30
49947;BME280;35839;48.662;13.300;2023-04-06T14:42:28;97472.81;;;17.08;24.63
49947;BME280;35839;48.662;13.300;2023-04-06T14:44:53;97464.38;;;17.19;24.70
49947;BME280;35839;48.662;13.300;2023-04-06T14:47:19;97467.94;;;18.59;24.40
49947;BME280;35839;48.662;13.300;2023-04-06T14:49:47;97469.72;;;16.82;24.55
49947;BME280;35839;48.662;13.300;2023-04-06T14:52:13;97471.25;;;16.77;25.20
49947;BME280;35839;48.662;13.300;2023-04-06T14:54:38;97469.59;;;18.25;25.27
49947;BME280;35839;48.662;13.300;2023-04-06T14:57:03;97458.69;;;19.83;24.74
49947;BME280;35839;48.662;13.300;2023-04-06T14:59:29;97463.78;;;18.98;23.14
49947;BME280;35839;48.662;13.300;2023-04-06T15:01:54;97456.22;;;17.42;24.03
49947;BME280;35839;48.662;13.300;2023-04-06T15:04:19;97460.22;;;16.73;24.50
49947;BME280;35839;48.662;13.300;2023-04-06T15:06:45;97457.25;;;18.45;24.79
49947;BME280;35839;48.662;13.300;2023-04-06T15:09:10;97451.13;;;19.13;23.81
49947;BME280;35839;48.662;13.300;2023-04-06T15:11:35;97455.97;;;17.86;23.42
49947;BME280;35839;48.662;13.300;2023-04-06T15:14:01;97459.81;;;17.56;23.55
49947;BME280;35839;48.662;13.300;2023-04-06T15:16:27;97446.41;;;18.88;23.86
49947;BME280;35839;48.662;13.300;2023-04-06T15:18:57;97447.69;;;19.32;24.50
49947;BME280;35839;48.662;13.300;2023-04-06T15:21:22;97444.81;;;19.81;23.17
49947;BME280;35839;48.662;13.300;2023-04-06T15:23:47;97444.91;;;21.34;21.46
49947;BME280;35839;48.662;13.300;2023-04-06T15:26:13;97449.06;;;21.23;24.09
49947;BME280;35839;48.662;13.300;2023-04-06T15:28:38;97445.97;;;22.57;21.48
49947;BME280;35839;48.662;13.300;2023-04-06T15:31:13;97452.63;;;22.11;19.08
49947;BME280;35839;48.662;13.300;2023-04-06T15:33:38;97453.25;;;20.29;20.64
49947;BME280;35839;48.662;13.300;2023-04-06T15:36:08;97453.38;;;18.35;20.98
49947;BME280;35839;48.662;13.300;2023-04-06T15:38:41;97451.38;;;20.43;20.28
49947;BME280;35839;48.662;13.300;2023-04-06T15:41:07;97455.50;;;20.84;20.88
49947;BME280;35839;48.662;13.300;2023-04-06T15:43:35;97451.31;;;21.26;19.27
49947;BME280;35839;48.662;13.300;2023-04-06T15:46:00;97448.56;;;21.15;19.45
49947;BME280;35839;48.662;13.300;2023-04-06T15:48:26;97456.88;;;19.50;20.28
49947;BME280;35839;48.662;13.300;2023-04-06T15:50:57;97460.25;;;20.75;21.06
49947;BME280;35839;48.662;13.300;2023-04-06T15:53:23;97455.63;;;19.06;22.21
49947;BME280;35839;48.662;13.300;2023-04-06T15:55:48;97451.25;;;20.70;20.22
49947;BME280;35839;48.662;13.300;2023-04-06T15:58:14;97449.00;;;20.21;21.01
49947;BME280;35839;48.662;13.300;2023-04-06T16:00:39;97448.44;;;19.93;21.79
49947;BME280;35839;48.662;13.300;2023-04-06T16:03:05;97452.91;;;20.12;21.04
49947;BME280;35839;48.662;13.300;2023-04-06T16:05:30;97451.72;;;18.33;21.71
49947;BME280;35839;48.662;13.300;2023-04-06T16:07:56;97452.56;;;19.02;21.19
49947;BME280;35839;48.662;13.300;2023-04-06T16:10:21;97451.75;;;19.15;20.96
49947;BME280;35839;48.662;13.300;2023-04-06T16:12:46;97445.44;;;19.29;19.77
49947;BME280;35839;48.662;13.300;2023-04-06T16:15:12;97454.03;;;18.08;20.62
49947;BME280;35839;48.662;13.300;2023-04-06T16:17:37;97445.16;;;21.01;19.84
49947;BME280;35839;48.662;13.300;2023-04-06T16:20:03;97450.09;;;20.00;19.60
49947;BME280;35839;48.662;13.300;2023-04-06T16:22:28;97441.75;;;19.84;19.90
49947;BME280;35839;48.662;13.300;2023-04-06T16:24:55;97451.47;;;18.22;21.80
49947;BME280;35839;48.662;13.300;2023-04-06T16:27:20;97454.38;;;17.14;21.16
49947;BME280;35839;48.662;13.300;2023-04-06T16:29:46;97450.91;;;16.77;22.03
49947;BME280;35839;48.662;13.300;2023-04-06T16:32:11;97448.13;;;18.54;22.16
49947;BME280;35839;48.662;13.300;2023-04-06T16:34:40;97449.91;;;17.99;21.82
49947;BME280;35839;48.662;13.300;2023-04-06T16:37:05;97454.25;;;17.79;22.17
49947;BME280;35839;48.662;13.300;2023-04-06T16:39:31;97449.06;;;17.92;22.31
49947;BME280;35839;48.662;13.300;2023-04-06T16:41:56;97446.25;;;16.07;24.57
49947;BME280;35839;48.662;13.300;2023-04-06T16:44:22;97448.56;;;17.25;23.55
49947;BME280;35839;48.662;13.300;2023-04-06T16:46:47;97452.16;;;16.09;25.39
49947;BME280;35839;48.662;13.300;2023-04-06T16:49:13;97452.66;;;17.56;22.73
49947;BME280;35839;48.662;13.300;2023-04-06T16:51:41;97447.31;;;16.12;23.90
49947;BME280;35839;48.662;13.300;2023-04-06T16:54:07;97452.88;;;15.73;26.00
49947;BME280;35839;48.662;13.300;2023-04-06T16:56:33;97455.81;;;14.94;26.06
49947;BME280;35839;48.662;13.300;2023-04-06T16:58:58;97461.63;;;13.71;28.29
49947;BME280;35839;48.662;13.300;2023-04-06T17:01:27;97455.72;;;12.95;29.60
49947;BME280;35839;48.662;13.300;2023-04-06T17:03:54;97457.03;;;12.83;30.38
49947;BME280;35839;48.662;13.300;2023-04-06T17:06:20;97446.88;;;13.04;30.49
49947;BME280;35839;48.662;13.300;2023-04-06T17:08:46;97447.97;;;12.77;30.76
49947;BME280;35839;48.662;13.300;2023-04-06T17:11:12;97459.69;;;11.90;32.49
49947;BME280;35839;48.662;13.300;2023-04-06T17:13:39;97460.72;;;11.71;32.54
49947;BME280;35839;48.662;13.300;2023-04-06T17:16:06;97452.53;;;11.48;33.35
49947;BME280;35839;48.662;13.300;2023-04-06T17:18:31;97454.81;;;11.25;34.16
49947;BME280;35839;48.662;13.300;2023-04-06T17:21:03;97454.69;;;11.08;33.65
49947;BME280;35839;48.662;13.300;2023-04-06T17:23:28;97452.75;;;10.74;35.25
49947;BME280;35839;48.662;13.300;2023-04-06T17:25:54;97456.78;;;11.23;34.22
49947;BME280;35839;48.662;13.300;2023-04-06T17:28:20;97455.34;;;11.28;33.43
49947;BME280;35839;48.662;13.300;2023-04-06T17:30:45;97450.50;;;10.97;34.53
49947;BME280;35839;48.662;13.300;2023-04-06T17:33:11;97458.84;;;10.75;34.63
49947;BME280;35839;48.662;13.300;2023-04-06T17:35:37;97461.72;;;10.26;35.92
49947;BME280;35839;48.662;13.300;2023-04-06T17:38:02;97458.97;;;9.90;36.52
49947;BME280;35839;48.662;13.300;2023-04-06T17:40:28;97455.13;;;9.95;36.17
49947;BME280;35839;48.662;13.300;2023-04-06T17:42:53;97465.97;;;9.62;36.88
49947;BME280;35839;48.662;13.300;2023-04-06T17:45:18;97461.16;;;9.95;36.30
49947;BME280;35839;48.662;13.300;2023-04-06T17:47:44;97465.28;;;10.35;35.63
49947;BME280;35839;48.662;13.300;2023-04-06T17:50:09;97468.66;;;10.18;35.76
49947;BME280;35839;48.662;13.300;2023-04-06T17:52:35;97469.13;;;10.03;36.25
49947;BME280;35839;48.662;13.300;2023-04-06T17:55:01;97471.78;;;9.37;36.61
49947;BME280;35839;48.662;13.300;2023-04-06T17:57:27;97481.69;;;9.43;36.49
49947;BME280;35839;48.662;13.300;2023-04-06T17:59:52;97476.34;;;9.35;36.76
49947;BME280;35839;48.662;13.300;2023-04-06T18:02:18;97473.72;;;9.44;37.08
49947;BME280;35839;48.662;13.300;2023-04-06T18:04:44;97475.13;;;9.19;37.69
49947;BME280;35839;48.662;13.300;2023-04-06T18:07:10;97487.78;;;8.95;40.25
49947;BME280;35839;48.662;13.300;2023-04-06T18:09:38;97476.91;;;7.79;46.91
49947;BME280;35839;48.662;13.300;2023-04-06T18:12:03;97485.28;;;8.14;45.78
49947;BME280;35839;48.662;13.300;2023-04-06T18:14:29;97485.53;;;7.80;47.01
49947;BME280;35839;48.662;13.300;2023-04-06T18:16:54;97485.56;;;7.38;47.63
49947;BME280;35839;48.662;13.300;2023-04-06T18:19:20;97487.09;;;7.41;49.72
49947;BME280;35839;48.662;13.300;2023-04-06T18:21:45;97488.94;;;7.08;49.66
49947;BME280;35839;48.662;13.300;2023-04-06T18:24:11;97494.78;;;7.00;50.45
49947;BME280;35839;48.662;13.300;2023-04-06T18:26:36;97497.69;;;6.74;49.62
49947;BME280;35839;48.662;13.300;2023-04-06T18:29:01;97500.59;;;6.92;49.58
49947;BME280;35839;48.662;13.300;2023-04-06T18:31:27;97497.56;;;7.08;50.82
49947;BME280;35839;48.662;13.300;2023-04-06T18:33:52;97494.03;;;6.77;51.08
49947;BME280;35839;48.662;13.300;2023-04-06T18:36:18;97500.06;;;6.66;51.48
49947;BME280;35839;48.662;13.300;2023-04-06T18:38:45;97502.22;;;6.61;53.00
49947;BME280;35839;48.662;13.300;2023-04-06T18:41:12;97509.13;;;6.40;54.69
49947;BME280;35839;48.662;13.300;2023-04-06T18:43:38;97509.94;;;6.40;55.80
49947;BME280;35839;48.662;13.300;2023-04-06T18:46:09;97509.25;;;5.93;56.23
49947;BME280;35839;48.662;13.300;2023-04-06T18:48:35;97512.91;;;5.90;56.04
49947;BME280;35839;48.662;13.300;2023-04-06T18:51:01;97510.81;;;5.96;54.84
49947;BME280;35839;48.662;13.300;2023-04-06T18:53:28;97512.81;;;5.92;54.48
49947;BME280;35839;48.662;13.300;2023-04-06T18:55:55;97510.56;;;5.87;55.71
49947;BME280;35839;48.662;13.300;2023-04-06T18:58:20;97526.34;;;5.73;56.73
49947;BME280;35839;48.662;13.300;2023-04-06T19:00:46;97520.16;;;5.40;59.48
49947;BME280;35839;48.662;13.300;2023-04-06T19:03:11;97515.63;;;5.20;58.92
49947;BME280;35839;48.662;13.300;2023-04-06T19:05:42;97522.94;;;5.26;59.18
49947;BME280;35839;48.662;13.300;2023-04-06T19:08:07;97529.72;;;5.04;62.20
49947;BME280;35839;48.662;13.300;2023-04-06T19:10:34;97524.47;;;4.93;62.03
49947;BME280;35839;48.662;13.300;2023-04-06T19:13:00;97514.78;;;5.19;60.14
49947;BME280;35839;48.662;13.300;2023-04-06T19:15:25;97527.19;;;5.16;58.53
49947;BME280;35839;48.662;13.300;2023-04-06T19:17:51;97528.44;;;5.10;59.86
49947;BME280;35839;48.662;13.300;2023-04-06T19:20:16;97532.13;;;5.19;59.24
49947;BME280;35839;48.662;13.300;2023-04-06T19:22:42;97535.09;;;4.90;62.16
49947;BME280;35839;48.662;13.300;2023-04-06T19:25:09;97536.72;;;4.43;62.56
49947;BME280;35839;48.662;13.300;2023-04-06T19:27:35;97537.69;;;4.16;63.34
49947;BME280;35839;48.662;13.300;2023-04-06T19:30:01;97535.00;;;4.05;66.72
49947;BME280;35839;48.662;13.300;2023-04-06T19:32:27;97536.59;;;4.44;66.62
49947;BME280;35839;48.662;13.300;2023-04-06T19:34:54;97526.78;;;4.61;67.02
49947;BME280;35839;48.662;13.300;2023-04-06T19:37:19;97527.25;;;4.79;65.37
49947;BME280;35839;48.662;13.300;2023-04-06T19:39:45;97531.66;;;4.65;65.06
49947;BME280;35839;48.662;13.300;2023-04-06T19:42:12;97534.53;;;4.37;65.88
49947;BME280;35839;48.662;13.300;2023-04-06T19:44:40;97532.84;;;3.61;70.44
49947;BME280;35839;48.662;13.300;2023-04-06T19:47:05;97520.72;;;3.99;68.53
49947;BME280;35839;48.662;13.300;2023-04-06T19:49:30;97525.28;;;3.45;70.84
49947;BME280;35839;48.662;13.300;2023-04-06T19:51:56;97528.47;;;3.35;71.52
49947;BME280;35839;48.662;13.300;2023-04-06T19:54:22;97526.88;;;3.07;74.85
49947;BME280;35839;48.662;13.300;2023-04-06T19:56:48;97534.00;;;3.69;76.87
49947;BME280;35839;48.662;13.300;2023-04-06T19:59:16;97540.88;;;3.30;81.70
49947;BME280;35839;48.662;13.300;2023-04-06T20:01:43;97543.50;;;3.56;77.51
49947;BME280;35839;48.662;13.300;2023-04-06T20:04:09;97544.94;;;3.34;79.95
49947;BME280;35839;48.662;13.300;2023-04-06T20:06:36;97542.16;;;2.98;79.32
49947;BME280;35839;48.662;13.300;2023-04-06T20:09:01;97541.91;;;3.15;75.53
49947;BME280;35839;48.662;13.300;2023-04-06T20:11:27;97529.94;;;3.40;73.49
49947;BME280;35839;48.662;13.300;2023-04-06T20:13:53;97535.13;;;3.65;71.38
49947;BME280;35839;48.662;13.300;2023-04-06T20:16:20;97540.19;;;3.79;75.15
49947;BME280;35839;48.662;13.300;2023-04-06T20:18:46;97535.44;;;3.48;78.61
49947;BME280;35839;48.662;13.300;2023-04-06T20:21:11;97533.72;;;3.08;80.82
49947;BME280;35839;48.662;13.300;2023-04-06T20:23:36;97537.78;;;2.85;84.51
49947;BME280;35839;48.662;13.300;2023-04-06T20:26:03;97543.41;;;3.05;83.96
49947;BME280;35839;48.662;13.300;2023-04-06T20:28:28;97539.97;;;3.31;82.17
49947;BME280;35839;48.662;13.300;2023-04-06T20:30:54;97539.97;;;3.31;81.57
49947;BME280;35839;48.662;13.300;2023-04-06T20:33:20;97542.38;;;2.94;81.90
49947;BME280;35839;48.662;13.300;2023-04-06T20:35:46;97535.78;;;2.76;84.37
49947;BME280;35839;48.662;13.300;2023-04-06T20:38:11;97537.13;;;2.82;85.29
49947;BME280;35839;48.662;13.300;2023-04-06T20:40:37;97544.34;;;2.35;87.72
49947;BME280;35839;48.662;13.300;2023-04-06T20:43:02;97540.19;;;2.61;86.79
49947;BME280;35839;48.662;13.300;2023-04-06T20:45:28;97537.56;;;2.88;85.22
49947;BME280;35839;48.662;13.300;2023-04-06T20:47:54;97534.66;;;2.80;86.01
49947;BME280;35839;48.662;13.300;2023-04-06T20:50:20;97538.63;;;2.44;86.79
49947;BME280;35839;48.662;13.300;2023-04-06T20:52:46;97537.66;;;2.18;89.21
49947;BME280;35839;48.662;13.300;2023-04-06T20:55:13;97537.03;;;2.15;91.19
49947;BME280;35839;48.662;13.300;2023-04-06T20:57:39;97524.91;;;2.71;89.36
49947;BME280;35839;48.662;13.300;2023-04-06T21:00:05;97526.44;;;3.01;87.67
49947;BME280;35839;48.662;13.300;2023-04-06T21:02:32;97532.00;;;2.40;91.35
49947;BME280;35839;48.662;13.300;2023-04-06T21:04:57;97529.34;;;2.27;91.53
49947;BME280;35839;48.662;13.300;2023-04-06T21:07:23;97534.41;;;2.29;90.32
49947;BME280;35839;48.662;13.300;2023-04-06T21:09:48;97528.13;;;2.47;89.17
49947;BME280;35839;48.662;13.300;2023-04-06T21:12:14;97531.28;;;2.09;90.48
49947;BME280;35839;48.662;13.300;2023-04-06T21:14:40;97531.47;;;2.21;90.03
49947;BME280;35839;48.662;13.300;2023-04-06T21:17:06;97531.97;;;1.99;92.31
49947;BME280;35839;48.662;13.300;2023-04-06T21:19:31;97527.41;;;2.31;91.59
49947;BME280;35839;48.662;13.300;2023-04-06T21:21:57;97529.09;;;1.89;93.69
49947;BME280;35839;48.662;13.300;2023-04-06T21:24:22;97522.53;;;1.83;94.95
49947;BME280;35839;48.662;13.300;2023-04-06T21:26:48;97527.25;;;1.77;97.74
49947;BME280;35839;48.662;13.300;2023-04-06T21:29:13;97530.81;;;1.45;100.00
49947;BME280;35839;48.662;13.300;2023-04-06T21:31:39;97528.25;;;1.45;100.00
49947;BME280;35839;48.662;13.300;2023-04-06T21:34:10;97529.00;;;2.05;99.93
49947;BME280;35839;48.662;13.300;2023-04-06T21:36:37;97533.88;;;1.52;100.00
49947;BME280;35839;48.662;13.300;2023-04-06T21:39:03;97522.59;;;1.39;100.00